Time;durP1;ratioP1;P1;durP2;ratioP2;P2;SDS_P1;SDS_P2;PMS_P1;PMS_P2;Temp;Humidity;BMP_temperature;BMP_pressure;BME280_temperature;BME280_humidity;BME280_pressure;Samples;Min_cycle;Max_cycle;Signal;HPM_P1;HPM_P2
2021/11/18 00:00:43;;;;;;;9.32;1.90;;;5.80;99.90;;;;;;5030611;28;20038;-87
2021/11/18 00:03:10;;;;;;;5.95;1.75;;;5.80;99.90;;;;;;5030814;28;20030;-86
2021/11/18 00:05:36;;;;;;;7.63;1.85;;;5.70;99.90;;;;;;5030642;28;20033;-86
2021/11/18 00:08:03;;;;;;;20.55;3.40;;;5.70;99.90;;;;;;5047126;28;20064;-87
2021/11/18 00:10:45;;;;;;;7.82;2.13;;;5.70;99.90;;;;;;5030514;28;20065;-87
2021/11/18 00:13:14;;;;;;;8.45;1.60;;;5.60;99.90;;;;;;5030792;28;20152;-86
2021/11/18 00:15:42;;;;;;;7.40;1.35;;;5.50;99.90;;;;;;5030294;28;20034;-88
2021/11/18 00:18:11;;;;;;;8.10;1.05;;;5.50;99.90;;;;;;5030737;28;20462;-87
2021/11/18 00:20:42;;;;;;;7.15;1.60;;;5.50;99.90;;;;;;5029796;28;20045;-87
2021/11/18 00:23:08;;;;;;;9.77;1.45;;;5.40;99.90;;;;;;5014164;28;20501;-87
2021/11/18 00:25:35;;;;;;;5.80;1.95;;;5.30;99.90;;;;;;5030157;28;20029;-89
2021/11/18 00:28:01;;;;;;;6.28;1.60;;;5.30;99.90;;;;;;5030234;28;20060;-86
2021/11/18 00:30:27;;;;;;;5.43;1.25;;;5.20;99.90;;;;;;5043543;28;20029;-88
2021/11/18 00:32:53;;;;;;;6.28;2.00;;;5.20;99.90;;;;;;5026694;28;20175;-86
2021/11/18 00:35:22;;;;;;;7.53;1.40;;;5.20;99.90;;;;;;5026760;28;20018;-88
2021/11/18 00:37:50;;;;;;;5.53;1.25;;;5.20;99.90;;;;;;5026629;28;20040;-87
2021/11/18 00:40:19;;;;;;;8.18;1.83;;;5.10;99.90;;;;;;5026467;28;20052;-87
2021/11/18 00:42:51;;;;;;;5.95;1.35;;;5.10;99.90;;;;;;5026283;28;20029;-87
2021/11/18 00:45:20;;;;;;;7.68;2.40;;;4.90;99.90;;;;;;5010200;28;20080;-87
2021/11/18 00:47:47;;;;;;;10.05;2.33;;;5.10;99.90;;;;;;4990573;28;20045;-88
2021/11/18 00:50:15;;;;;;;7.70;1.73;;;5.00;99.90;;;;;;4990699;28;20034;-86
2021/11/18 00:52:40;;;;;;;10.95;2.72;;;4.90;99.90;;;;;;4989994;28;20026;-89
2021/11/18 00:55:08;;;;;;;6.43;1.52;;;4.90;99.90;;;;;;4990581;28;20073;-87
2021/11/18 00:57:35;;;;;;;5.20;1.40;;;4.80;99.90;;;;;;4990537;28;20090;-87
2021/11/18 01:00:01;;;;;;;6.75;1.27;;;4.80;99.90;;;;;;4974088;28;20544;-86
2021/11/18 01:02:27;;;;;;;10.00;2.05;;;4.80;99.90;;;;;;4990471;28;20030;-86
2021/11/18 01:04:55;;;;;;;8.77;1.75;;;4.70;99.90;;;;;;4990878;28;20026;-86
2021/11/18 01:07:21;;;;;;;7.57;1.70;;;4.70;99.90;;;;;;4990389;28;20030;-88
2021/11/18 01:09:47;;;;;;;11.15;1.58;;;4.70;99.90;;;;;;4974586;28;20502;-86
2021/11/18 01:12:13;;;;;;;6.10;1.92;;;4.80;99.90;;;;;;4990508;28;20498;-87
2021/11/18 01:14:39;;;;;;;10.35;2.22;;;4.80;99.90;;;;;;4990447;28;20034;-87
2021/11/18 01:17:07;;;;;;;9.77;2.60;;;4.80;99.90;;;;;;4990141;28;20054;-87
2021/11/18 01:19:33;;;;;;;8.68;2.30;;;4.80;99.90;;;;;;4974054;28;20034;-87
2021/11/18 01:22:03;;;;;;;10.32;1.85;;;4.80;99.90;;;;;;4974055;28;20042;-87
2021/11/18 01:24:34;;;;;;;8.77;3.00;;;4.90;99.90;;;;;;4990084;28;20022;-87
2021/11/18 01:27:19;;;;;;;7.93;1.75;;;4.80;99.90;;;;;;4992549;28;20090;-86
2021/11/18 01:29:44;;;;;;;7.32;2.33;;;4.70;99.90;;;;;;4988193;28;20041;-86
2021/11/18 01:32:11;;;;;;;9.18;1.77;;;4.70;99.90;;;;;;5025640;28;20026;-87
2021/11/18 01:34:44;;;;;;;9.93;1.67;;;4.60;99.90;;;;;;5025478;28;20434;-87
2021/11/18 01:37:10;;;;;;;5.78;1.35;;;4.60;99.90;;;;;;5025525;28;20021;-87
2021/11/18 01:39:37;;;;;;;5.18;1.63;;;4.60;99.90;;;;;;5025650;28;20030;-88
2021/11/18 01:42:03;;;;;;;9.13;1.88;;;4.60;99.90;;;;;;5025640;28;20057;-87
2021/11/18 01:44:38;;;;;;;11.60;2.08;;;4.50;99.90;;;;;;5025803;28;20052;-88
2021/11/18 01:47:07;;;;;;;8.27;2.15;;;4.50;99.90;;;;;;5028461;28;20047;-87
2021/11/18 01:49:33;;;;;;;8.15;1.73;;;4.50;99.90;;;;;;5028773;28;20025;-88
2021/11/18 01:52:02;;;;;;;7.28;2.05;;;4.40;99.90;;;;;;5028536;28;20037;-88
2021/11/18 01:54:31;;;;;;;8.57;1.95;;;4.40;99.90;;;;;;5028742;28;20101;-87
2021/11/18 01:56:59;;;;;;;7.45;2.40;;;4.40;99.90;;;;;;5028584;28;20056;-86
2021/11/18 01:59:32;;;;;;;10.13;1.85;;;4.30;99.90;;;;;;5028758;28;20037;-87
2021/11/18 02:02:22;;;;;;;8.05;2.33;;;4.30;99.90;;;;;;5045217;28;20244;-86
2021/11/18 02:05:14;;;;;;;5.50;1.98;;;4.30;99.90;;;;;;5044153;28;20482;-86
2021/11/18 02:07:42;;;;;;;8.90;1.98;;;4.30;99.90;;;;;;5011911;28;20098;-87
2021/11/18 02:10:23;;;;;;;8.38;2.22;;;4.20;99.90;;;;;;5028916;28;20026;-87
2021/11/18 02:12:49;;;;;;;6.13;2.13;;;4.30;99.90;;;;;;5028482;28;20030;-87
2021/11/18 02:15:44;;;;;;;6.95;1.92;;;4.20;99.90;;;;;;5028655;28;20044;-87
2021/11/18 02:18:18;;;;;;;8.35;2.33;;;4.20;99.90;;;;;;5012251;28;20040;-87
2021/11/18 02:20:48;;;;;;;12.10;2.33;;;4.20;99.90;;;;;;5027724;28;20045;-86
2021/11/18 02:23:17;;;;;;;7.95;2.47;;;4.20;99.90;;;;;;5012103;28;20104;-87
2021/11/18 02:25:47;;;;;;;7.25;2.50;;;4.10;99.90;;;;;;5011824;28;20038;-87
2021/11/18 02:28:13;;;;;;;5.82;2.17;;;4.20;99.90;;;;;;5011992;28;20060;-87
2021/11/18 02:30:40;;;;;;;8.27;2.95;;;4.20;99.90;;;;;;5011940;28;20033;-88
2021/11/18 02:33:10;;;;;;;7.05;2.30;;;4.10;99.90;;;;;;4992375;28;20033;-86
2021/11/18 02:35:38;;;;;;;7.63;2.58;;;4.10;99.90;;;;;;5008676;28;20482;-89
2021/11/18 02:38:05;;;;;;;8.35;2.88;;;4.20;99.90;;;;;;4992133;28;20057;-87
2021/11/18 02:40:33;;;;;;;8.27;2.50;;;4.10;99.90;;;;;;4992484;28;20038;-88
2021/11/18 02:43:01;;;;;;;10.18;3.45;;;4.20;99.90;;;;;;4992346;28;20033;-88
2021/11/18 02:45:31;;;;;;;10.95;2.97;;;4.10;99.90;;;;;;5009720;28;20056;-86
2021/11/18 02:47:59;;;;;;;13.68;3.67;;;4.20;99.90;;;;;;5011726;28;20033;-87
2021/11/18 02:50:37;;;;;;;9.95;3.28;;;4.20;99.90;;;;;;5027574;28;20040;-87
2021/11/18 02:53:04;;;;;;;11.05;3.08;;;4.30;99.90;;;;;;5011283;28;20029;-87
2021/11/18 02:55:35;;;;;;;10.43;4.40;;;4.60;99.90;;;;;;5011288;28;20034;-85
2021/11/18 02:58:01;;;;;;;10.10;4.43;;;4.50;99.90;;;;;;5011674;28;20397;-87
2021/11/18 03:00:32;;;;;;;7.35;3.70;;;4.40;99.90;;;;;;5011689;28;20038;-86
2021/11/18 03:02:58;;;;;;;10.38;3.40;;;4.40;99.90;;;;;;5011526;28;20021;-85
2021/11/18 03:05:24;;;;;;;13.18;4.40;;;4.50;99.90;;;;;;5011528;28;20025;-87
2021/11/18 03:07:51;;;;;;;9.30;3.45;;;4.50;99.90;;;;;;5011418;28;20030;-87
2021/11/18 03:10:21;;;;;;;16.77;3.70;;;4.50;99.90;;;;;;5011685;28;20025;-86
2021/11/18 03:12:47;;;;;;;11.20;4.10;;;4.60;99.90;;;;;;5011742;28;20098;-87
2021/11/18 03:15:14;;;;;;;8.18;3.92;;;4.60;99.90;;;;;;5028082;28;20041;-87
2021/11/18 03:17:41;;;;;;;8.85;3.88;;;4.70;99.90;;;;;;5014507;28;20053;-87
2021/11/18 03:20:30;;;;;;;13.65;3.90;;;4.60;99.90;;;;;;5031425;28;20049;-87
2021/11/18 03:22:57;;;;;;;16.83;3.85;;;4.80;99.90;;;;;;5015255;28;20025;-86
2021/11/18 03:25:30;;;;;;;7.90;3.88;;;4.90;99.90;;;;;;5015294;28;20096;-86
2021/11/18 03:28:03;;;;;;;11.90;3.60;;;5.10;99.90;;;;;;5016041;28;20033;-87
2021/11/18 03:30:35;;;;;;;9.15;4.30;;;5.10;99.90;;;;;;5016704;28;20041;-86
2021/11/18 03:33:13;;;;;;;11.68;3.72;;;5.10;99.90;;;;;;4996200;28;20057;-87
2021/11/18 03:35:39;;;;;;;7.90;4.10;;;5.10;99.90;;;;;;5011833;28;20026;-87
2021/11/18 03:38:11;;;;;;;6.40;3.50;;;5.10;99.90;;;;;;5011961;28;20033;-88
2021/11/18 03:40:39;;;;;;;16.27;3.88;;;5.10;99.90;;;;;;4995413;28;20109;-87
2021/11/18 03:43:09;;;;;;;13.07;4.30;;;5.10;99.90;;;;;;4995598;28;20037;-87
2021/11/18 03:45:37;;;;;;;10.45;3.45;;;5.20;99.90;;;;;;4997575;28;20038;-87
2021/11/18 03:48:03;;;;;;;12.15;4.30;;;5.10;99.90;;;;;;5014778;28;20358;-86
2021/11/18 03:50:32;;;;;;;9.00;3.50;;;5.20;99.90;;;;;;5031098;28;20032;-88
2021/11/18 03:52:57;;;;;;;11.70;4.32;;;5.30;99.90;;;;;;5014420;28;20026;-88
2021/11/18 03:55:23;;;;;;;12.18;3.42;;;5.40;99.90;;;;;;5014281;28;20022;-87
2021/11/18 03:57:53;;;;;;;11.07;4.00;;;5.50;99.90;;;;;;5030977;28;20120;-87
2021/11/18 04:00:28;;;;;;;11.43;4.38;;;5.50;99.90;;;;;;5014707;28;20036;-88
2021/11/18 04:02:55;;;;;;;9.93;3.47;;;5.60;99.90;;;;;;5014450;28;20030;-87
2021/11/18 04:05:33;;;;;;;13.23;4.75;;;5.70;99.90;;;;;;5016171;28;20116;-86
2021/11/18 04:07:59;;;;;;;15.07;4.78;;;5.80;99.90;;;;;;5014587;28;20033;-88
2021/11/18 04:10:29;;;;;;;17.30;6.18;;;6.00;99.90;;;;;;5030946;28;20106;-87
2021/11/18 04:12:56;;;;;;;17.05;5.85;;;6.00;99.90;;;;;;5014300;28;20033;-88
2021/11/18 04:15:24;;;;;;;13.23;4.60;;;5.80;99.90;;;;;;5030884;28;20033;-87
2021/11/18 04:17:53;;;;;;;16.27;5.90;;;5.90;99.90;;;;;;5014666;28;20057;-87
2021/11/18 04:20:22;;;;;;;21.05;6.65;;;6.10;99.90;;;;;;5014283;28;20061;-88
2021/11/18 04:22:50;;;;;;;17.08;5.22;;;6.10;99.90;;;;;;5030368;28;20037;-88
2021/11/18 04:25:21;;;;;;;11.07;4.32;;;6.00;99.90;;;;;;5014274;28;20029;-87
2021/11/18 04:27:47;;;;;;;11.73;6.22;;;6.00;99.90;;;;;;5012980;28;20037;-87
2021/11/18 04:30:19;;;;;;;16.60;6.13;;;6.10;99.90;;;;;;5001760;28;20028;-88
2021/11/18 04:33:00;;;;;;;16.10;5.32;;;6.10;99.90;;;;;;5012669;28;20029;-87
2021/11/18 04:35:26;;;;;;;10.88;4.15;;;6.00;99.90;;;;;;5010925;28;20084;-88
2021/11/18 04:37:52;;;;;;;17.25;5.63;;;6.00;99.90;;;;;;4994359;28;20026;-87
2021/11/18 04:40:18;;;;;;;11.60;4.70;;;6.10;99.90;;;;;;5010332;28;20579;-86
2021/11/18 04:42:45;;;;;;;18.08;5.28;;;6.10;99.90;;;;;;4994818;28;20033;-88
2021/11/18 04:45:20;;;;;;;19.48;4.75;;;6.10;99.90;;;;;;4994932;28;20038;-87
2021/11/18 04:47:47;;;;;;;9.85;3.70;;;6.20;99.90;;;;;;4991130;28;20026;-87
2021/11/18 04:50:13;;;;;;;11.88;3.30;;;6.20;99.90;;;;;;4990804;28;20065;-87
2021/11/18 04:52:40;;;;;;;12.82;5.10;;;6.10;99.90;;;;;;4990955;28;20030;-86
2021/11/18 04:55:07;;;;;;;13.15;5.60;;;6.10;99.90;;;;;;4990672;28;20049;-87
2021/11/18 04:57:34;;;;;;;13.55;4.85;;;6.10;99.90;;;;;;4990936;28;20135;-87
2021/11/18 05:00:00;;;;;;;16.77;5.22;;;6.20;99.90;;;;;;4990484;28;20042;-87
2021/11/18 05:02:28;;;;;;;14.75;4.35;;;6.10;99.90;;;;;;4990588;28;20498;-87
2021/11/18 05:04:53;;;;;;;19.05;5.38;;;6.00;99.90;;;;;;4990616;28;20069;-87
2021/11/18 05:07:20;;;;;;;15.25;5.93;;;6.10;99.90;;;;;;4990216;28;20403;-87
2021/11/18 05:09:47;;;;;;;17.30;6.00;;;6.00;99.90;;;;;;4990646;28;20026;-87
2021/11/18 05:12:26;;;;;;;16.98;6.38;;;6.00;99.90;;;;;;4974490;28;20034;-87
2021/11/18 05:14:51;;;;;;;14.95;6.85;;;6.00;99.90;;;;;;4990889;28;20057;-90
2021/11/18 05:17:17;;;;;;;23.27;7.30;;;5.90;99.90;;;;;;4988604;28;20034;-89
2021/11/18 05:19:43;;;;;;;19.95;6.65;;;6.00;99.90;;;;;;4974490;28;20093;-89
2021/11/18 05:22:09;;;;;;;16.67;7.00;;;6.10;99.90;;;;;;4974145;28;20073;-89
2021/11/18 05:24:34;;;;;;;15.80;6.55;;;6.00;99.90;;;;;;4973801;28;20038;-88
2021/11/18 05:27:00;;;;;;;18.13;7.03;;;6.00;99.90;;;;;;4973903;28;20033;-89
2021/11/18 05:29:26;;;;;;;12.07;7.13;;;6.00;99.90;;;;;;4980334;28;20038;-89
2021/11/18 05:31:53;;;;;;;13.20;6.28;;;6.00;99.90;;;;;;4993253;28;20044;-89
2021/11/18 05:34:40;;;;;;;17.40;6.75;;;6.00;99.90;;;;;;5012608;28;20066;-90
2021/11/18 05:37:08;;;;;;;17.25;7.43;;;6.00;99.90;;;;;;4993520;28;20026;-90
2021/11/18 05:39:36;;;;;;;11.23;4.75;;;6.00;99.90;;;;;;4993464;28;20041;-90
2021/11/18 05:42:03;;;;;;;12.80;5.75;;;6.00;99.90;;;;;;5009294;28;20049;-89
2021/11/18 05:44:29;;;;;;;13.00;5.35;;;6.10;99.90;;;;;;5009622;28;20114;-89
2021/11/18 05:46:55;;;;;;;17.73;6.07;;;6.10;99.90;;;;;;5006567;28;20043;-91
2021/11/18 05:49:22;;;;;;;12.60;5.70;;;6.00;99.90;;;;;;5012466;28;20112;-90
2021/11/18 05:51:48;;;;;;;14.88;5.90;;;6.00;99.90;;;;;;5012674;28;20029;-90
2021/11/18 05:54:17;;;;;;;12.38;4.65;;;6.10;99.90;;;;;;5012615;28;20034;-89
2021/11/18 05:56:43;;;;;;;12.30;4.05;;;6.10;99.90;;;;;;5012638;28;20087;-89
2021/11/18 05:59:11;;;;;;;19.05;5.95;;;6.10;99.90;;;;;;5012619;28;20033;-89
2021/11/18 06:01:37;;;;;;;13.60;4.65;;;6.20;99.90;;;;;;5012549;28;20041;-90
2021/11/18 06:04:05;;;;;;;19.15;5.07;;;6.30;99.90;;;;;;5012544;28;20105;-90
2021/11/18 06:06:39;;;;;;;19.40;5.43;;;6.40;99.90;;;;;;5013531;28;20116;-89
2021/11/18 06:09:05;;;;;;;16.20;5.53;;;6.50;99.90;;;;;;5012265;28;20101;-89
2021/11/18 06:11:37;;;;;;;19.42;6.47;;;6.50;99.90;;;;;;5012870;28;20116;-88
2021/11/18 06:14:06;;;;;;;18.58;6.38;;;6.60;99.90;;;;;;5012950;28;20177;-89
2021/11/18 06:16:33;;;;;;;17.52;5.88;;;6.60;99.90;;;;;;5012197;28;20501;-89
2021/11/18 06:19:19;;;;;;;22.20;6.13;;;6.70;99.90;;;;;;5011609;28;20096;-88
2021/11/18 06:21:48;;;;;;;22.85;6.57;;;6.60;99.90;;;;;;4947268;29;20112;-88
2021/11/18 06:24:16;;;;;;;19.23;6.07;;;6.70;99.90;;;;;;4949538;29;20043;-88
2021/11/18 06:26:52;;;;;;;16.88;5.05;;;6.60;99.90;;;;;;4947411;28;20051;-85
2021/11/18 06:29:29;;;;;;;20.85;6.30;;;6.60;99.90;;;;;;4936195;29;20122;-88
2021/11/18 06:31:57;;;;;;;20.65;7.10;;;6.70;99.90;;;;;;4949704;29;20055;-90
2021/11/18 06:34:24;;;;;;;20.83;6.47;;;6.70;99.90;;;;;;4932383;29;20078;-86
2021/11/18 06:36:50;;;;;;;19.65;6.45;;;6.80;99.90;;;;;;4948256;29;20023;-85
2021/11/18 06:39:18;;;;;;;24.67;7.32;;;6.80;99.90;;;;;;4948216;29;20043;-85
2021/11/18 06:41:44;;;;;;;16.23;5.53;;;6.80;99.90;;;;;;4949039;29;20039;-86
2021/11/18 06:44:11;;;;;;;15.63;5.28;;;6.80;99.90;;;;;;4949191;29;20038;-85
2021/11/18 06:46:38;;;;;;;24.35;6.75;;;6.80;99.90;;;;;;4948975;29;20110;-86
2021/11/18 06:49:07;;;;;;;23.50;6.32;;;6.80;99.90;;;;;;4949302;29;20039;-86
2021/11/18 06:51:34;;;;;;;20.35;5.30;;;6.80;99.90;;;;;;4950650;29;20043;-87
2021/11/18 06:53:59;;;;;;;17.13;5.72;;;6.80;99.90;;;;;;4953241;29;20039;-85
2021/11/18 06:56:29;;;;;;;16.83;5.13;;;6.80;99.90;;;;;;4937370;29;20094;-85
2021/11/18 06:58:57;;;;;;;22.00;6.35;;;6.80;99.90;;;;;;4975323;28;20061;-85
2021/11/18 07:01:26;;;;;;;25.70;6.43;;;6.90;99.90;;;;;;4976996;28;20042;-86
2021/11/18 07:03:52;;;;;;;19.88;6.63;;;6.90;99.90;;;;;;4976802;28;20032;-85
2021/11/18 07:06:21;;;;;;;16.55;5.65;;;6.90;99.90;;;;;;4976719;28;20063;-86
2021/11/18 07:08:47;;;;;;;18.67;6.60;;;6.80;99.90;;;;;;4976539;28;20102;-86
2021/11/18 07:11:15;;;;;;;21.70;7.65;;;6.80;99.90;;;;;;4992154;28;20031;-86
2021/11/18 07:13:42;;;;;;;16.52;6.38;;;6.80;99.90;;;;;;4976863;28;20080;-85
2021/11/18 07:16:28;;;;;;;21.30;6.57;;;6.90;99.90;;;;;;4995733;28;20045;-87
2021/11/18 07:19:14;;;;;;;20.77;6.03;;;6.90;99.90;;;;;;4992234;28;20077;-85
2021/11/18 07:21:41;;;;;;;20.27;6.93;;;6.90;99.90;;;;;;4909719;29;20052;-85
2021/11/18 07:24:10;;;;;;;19.65;7.03;;;6.90;99.90;;;;;;4914719;29;20067;-85
2021/11/18 07:26:37;;;;;;;20.05;6.80;;;6.90;99.90;;;;;;4898470;29;20040;-85
2021/11/18 07:29:06;;;;;;;17.60;6.18;;;6.90;99.90;;;;;;4914038;29;20028;-85
2021/11/18 07:31:34;;;;;;;19.25;6.15;;;6.80;99.90;;;;;;4898210;29;20067;-84
2021/11/18 07:34:00;;;;;;;22.08;7.78;;;6.80;99.90;;;;;;4913848;29;20068;-85
2021/11/18 07:36:25;;;;;;;25.80;7.55;;;6.80;99.90;;;;;;4913554;29;20072;-85
2021/11/18 07:38:51;;;;;;;22.52;7.38;;;6.80;99.90;;;;;;4913716;29;20086;-85
2021/11/18 07:41:17;;;;;;;15.55;6.25;;;6.80;99.90;;;;;;4913548;29;20067;-86
2021/11/18 07:43:53;;;;;;;21.63;7.05;;;6.80;99.90;;;;;;4915087;29;20217;-85
2021/11/18 07:46:40;;;;;;;22.60;7.28;;;6.80;99.90;;;;;;4927625;29;20098;-86
2021/11/18 07:49:11;;;;;;;18.15;6.68;;;6.80;99.90;;;;;;4951985;29;20033;-86
2021/11/18 07:51:39;;;;;;;19.88;6.20;;;6.80;99.90;;;;;;4951614;29;20042;-86
2021/11/18 07:54:11;;;;;;;23.00;7.28;;;6.70;99.90;;;;;;4951751;29;20062;-86
2021/11/18 07:56:37;;;;;;;14.85;6.65;;;6.70;99.90;;;;;;4951345;29;20075;-86
2021/11/18 07:59:04;;;;;;;20.90;6.15;;;6.70;99.90;;;;;;4988869;28;20041;-86
2021/11/18 08:01:32;;;;;;;24.58;7.88;;;6.70;99.90;;;;;;4994245;28;20101;-86
2021/11/18 08:03:58;;;;;;;15.38;5.68;;;6.70;99.90;;;;;;4993089;28;20088;-85
2021/11/18 08:06:39;;;;;;;15.27;5.95;;;6.70;99.90;;;;;;4995967;28;20033;-86
2021/11/18 08:09:10;;;;;;;26.90;6.68;;;6.60;99.90;;;;;;4994647;28;20103;-86
2021/11/18 08:11:49;;;;;;;17.52;7.22;;;6.60;99.90;;;;;;4994865;28;20037;-86
2021/11/18 08:14:17;;;;;;;19.45;8.23;;;6.60;99.90;;;;;;4994376;28;20026;-86
2021/11/18 08:16:46;;;;;;;23.63;7.82;;;6.60;99.90;;;;;;5010286;28;20030;-87
2021/11/18 08:19:13;;;;;;;18.80;5.72;;;6.60;99.90;;;;;;4994134;28;20462;-87
2021/11/18 08:21:41;;;;;;;21.92;7.78;;;6.60;99.90;;;;;;5007919;28;20049;-87
2021/11/18 08:24:09;;;;;;;22.83;8.05;;;6.60;99.90;;;;;;5013567;28;20056;-87
2021/11/18 08:26:35;;;;;;;17.73;7.80;;;6.60;99.90;;;;;;5029735;28;20060;-87
2021/11/18 08:29:10;;;;;;;23.30;9.57;;;6.70;99.90;;;;;;5010251;28;20026;-87
2021/11/18 08:31:38;;;;;;;24.05;10.50;;;6.70;99.90;;;;;;4993954;28;20022;-88
2021/11/18 08:34:24;;;;;;;22.58;10.40;;;6.80;99.90;;;;;;5026704;28;20036;-87
2021/11/18 08:36:52;;;;;;;25.05;9.30;;;6.90;99.90;;;;;;4993936;28;20026;-88
2021/11/18 08:39:22;;;;;;;30.65;9.77;;;6.80;99.90;;;;;;4993715;28;20034;-87
2021/11/18 08:41:52;;;;;;;24.80;9.55;;;6.90;99.90;;;;;;5009620;28;20053;-87
2021/11/18 08:44:21;;;;;;;24.63;9.48;;;6.90;99.90;;;;;;5026280;28;20037;-87
2021/11/18 08:46:48;;;;;;;26.50;10.20;;;6.90;99.90;;;;;;5005385;28;20026;-88
2021/11/18 08:49:17;;;;;;;25.60;10.07;;;7.00;99.90;;;;;;5012997;28;20083;-87
2021/11/18 08:51:44;;;;;;;28.88;10.30;;;7.00;99.90;;;;;;5013105;28;20048;-87
2021/11/18 08:54:14;;;;;;;24.02;9.27;;;7.10;99.90;;;;;;5013088;28;20045;-88
2021/11/18 08:56:41;;;;;;;27.50;10.73;;;7.20;99.90;;;;;;5012745;28;20116;-87
2021/11/18 08:59:08;;;;;;;23.77;9.00;;;7.20;99.90;;;;;;5012643;28;20041;-87
2021/11/18 09:01:42;;;;;;;26.83;9.52;;;7.30;99.90;;;;;;5012737;28;20041;-87
2021/11/18 09:04:14;;;;;;;25.00;8.55;;;7.30;99.90;;;;;;5012828;28;20470;-87
2021/11/18 09:06:40;;;;;;;22.95;8.43;;;7.40;99.90;;;;;;5028954;28;20060;-87
2021/11/18 09:09:09;;;;;;;26.10;9.45;;;7.40;99.90;;;;;;5012833;28;20018;-87
2021/11/18 09:11:35;;;;;;;19.42;7.90;;;7.50;99.90;;;;;;5012688;28;20040;-88
2021/11/18 09:14:03;;;;;;;20.60;7.63;;;7.50;99.90;;;;;;5012234;28;20025;-87
2021/11/18 09:16:32;;;;;;;27.05;9.38;;;7.60;99.90;;;;;;5012666;28;20286;-87
2021/11/18 09:22:57;;;;;;;28.40;8.75;;;7.70;99.90;;;;;;4983367;28;20049;-89
2021/11/18 09:25:27;;;;;;;25.52;9.05;;;7.80;99.90;;;;;;4953007;28;20037;-87
2021/11/18 09:27:57;;;;;;;29.00;9.60;;;8.00;99.90;;;;;;4952883;28;20035;-87
2021/11/18 09:30:31;;;;;;;27.27;9.93;;;8.00;99.90;;;;;;4939460;29;20028;-88
2021/11/18 09:32:58;;;;;;;26.05;10.02;;;8.00;99.90;;;;;;4933608;29;20287;-87
2021/11/18 09:35:40;;;;;;;21.00;7.22;;;8.10;99.90;;;;;;4950085;29;20031;-87
2021/11/18 09:38:10;;;;;;;34.17;11.52;;;8.30;99.90;;;;;;4933836;29;20036;-88
2021/11/18 09:40:42;;;;;;;28.60;9.40;;;8.40;99.90;;;;;;4965695;29;20054;-86
2021/11/18 09:43:43;;;;;;;35.10;9.43;;;8.60;99.90;;;;;;4935332;29;20039;-87
2021/11/18 09:46:27;;;;;;;31.13;10.27;;;8.60;99.90;;;;;;4939826;28;20038;-90
2021/11/18 09:49:24;;;;;;;39.00;11.57;;;8.70;99.90;;;;;;4968616;28;20023;-91
2021/11/18 09:52:26;;;;;;;27.95;10.00;;;8.70;99.90;;;;;;4968628;28;20094;-90
2021/11/18 09:55:02;;;;;;;26.95;9.68;;;8.80;99.90;;;;;;4952767;28;20035;-89
2021/11/18 09:57:45;;;;;;;29.58;10.23;;;9.00;99.90;;;;;;4952428;28;20031;-87
2021/11/18 10:00:55;;;;;;;33.40;9.80;;;9.00;99.90;;;;;;4992834;28;20032;-89
2021/11/18 10:03:54;;;;;;;32.67;9.38;;;9.10;99.90;;;;;;4993099;28;20097;-87
2021/11/18 10:06:23;;;;;;;31.23;9.88;;;9.10;99.90;;;;;;4992291;28;20065;-88
2021/11/18 10:08:50;;;;;;;;;;;9.20;99.90;;;;;;4992554;28;20029;-87
2021/11/18 10:11:39;;;;;;;29.60;9.40;;;9.30;99.90;;;;;;4991777;28;20301;-86
2021/11/18 10:14:29;;;;;;;28.65;8.85;;;9.30;99.90;;;;;;4991868;28;20033;-87
2021/11/18 10:17:22;;;;;;;28.73;8.82;;;9.30;99.90;;;;;;4992408;28;20052;-87
2021/11/18 10:20:04;;;;;;;27.75;9.98;;;9.40;99.90;;;;;;4992318;28;20027;-89
2021/11/18 10:22:34;;;;;;;28.92;10.02;;;9.60;99.90;;;;;;5001407;28;20048;-89
2021/11/18 10:25:04;;;;;;;26.60;8.43;;;9.50;99.90;;;;;;5011721;28;20033;-89
2021/11/18 10:27:41;;;;;;;25.42;8.35;;;9.70;99.90;;;;;;5010921;28;20037;-87
2021/11/18 10:30:12;;;;;;;24.33;8.77;;;9.80;99.90;;;;;;5015769;28;20026;-86
2021/11/18 10:33:11;;;;;;;18.58;6.93;;;9.80;99.90;;;;;;5008176;28;20493;-88
2021/11/18 10:35:56;;;;;;;21.08;8.82;;;10.00;99.90;;;;;;4994377;28;20034;-86
2021/11/18 10:38:25;;;;;;;22.63;8.80;;;10.10;99.90;;;;;;5007987;28;20044;-88
2021/11/18 10:41:17;;;;;;;33.25;9.52;;;9.80;99.90;;;;;;5008025;28;20041;-87
2021/11/18 10:44:01;;;;;;;26.70;7.68;;;9.80;99.90;;;;;;5008297;28;20060;-88
2021/11/18 10:46:41;;;;;;;18.58;5.93;;;10.00;99.90;;;;;;5027493;28;20393;-87
2021/11/18 10:49:12;;;;;;;24.45;7.18;;;10.20;99.90;;;;;;5027574;28;20037;-89
2021/11/18 10:51:55;;;;;;;23.75;7.03;;;10.10;99.90;;;;;;5012049;28;20108;-87
2021/11/18 10:54:39;;;;;;;22.95;6.70;;;10.20;99.90;;;;;;5012311;28;20033;-89
2021/11/18 10:57:07;;;;;;;23.42;6.07;;;10.30;99.90;;;;;;5012439;28;20037;-89
2021/11/18 10:59:35;;;;;;;35.22;8.13;;;10.40;99.90;;;;;;5012283;28;20029;-90
2021/11/18 11:02:01;;;;;;;26.95;5.95;;;10.40;99.90;;;;;;5012377;28;20044;-90
2021/11/18 11:04:42;;;;;;;24.27;5.85;;;10.40;99.90;;;;;;5013147;28;20112;-89
2021/11/18 11:07:09;;;;;;;24.23;5.68;;;10.40;99.90;;;;;;5015006;28;20036;-89
2021/11/18 11:09:39;;;;;;;16.13;4.15;;;10.30;99.90;;;;;;5031955;28;20040;-90
2021/11/18 11:12:08;;;;;;;16.92;5.28;;;10.20;99.90;;;;;;5032876;28;20033;-90
2021/11/18 11:14:44;;;;;;;18.95;5.68;;;10.20;99.90;;;;;;5015383;28;20040;-92
2021/11/18 11:17:22;;;;;;;23.77;5.30;;;10.10;99.90;;;;;;5016379;28;20244;-92
2021/11/18 11:20:17;;;;;;;15.90;4.05;;;10.10;99.90;;;;;;5016339;28;20030;-87
2021/11/18 11:23:09;;;;;;;14.98;4.18;;;10.10;99.90;;;;;;5010968;28;20075;-87
2021/11/18 11:25:45;;;;;;;18.60;5.63;;;10.20;99.90;;;;;;5011233;28;20033;-87
2021/11/18 11:28:29;;;;;;;17.27;4.65;;;10.20;99.90;;;;;;5010922;28;20139;-88
2021/11/18 11:31:04;;;;;;;20.50;4.65;;;10.30;99.90;;;;;;4992658;28;20123;-86
2021/11/18 11:33:49;;;;;;;19.95;4.80;;;10.40;99.90;;;;;;5007946;28;20036;-87
2021/11/18 11:36:51;;;;;;;19.67;4.72;;;10.50;99.90;;;;;;4991367;28;20064;-89
2021/11/18 11:39:32;;;;;;;21.80;4.70;;;10.50;99.90;;;;;;4995376;28;20036;-86
2021/11/18 11:42:13;;;;;;;18.48;3.83;;;10.60;99.90;;;;;;5011296;28;20137;-88
2021/11/18 11:44:56;;;;;;;23.27;4.07;;;10.60;99.90;;;;;;4994924;28;20066;-86
2021/11/18 11:47:38;;;;;;;21.95;4.25;;;10.60;99.90;;;;;;5013927;28;20025;-87
2021/11/18 11:50:16;;;;;;;16.08;3.22;;;10.60;99.90;;;;;;5014224;28;20456;-86
2021/11/18 11:52:48;;;;;;;16.45;3.75;;;10.70;99.90;;;;;;4975625;28;20042;-87
2021/11/18 11:55:45;;;;;;;15.18;3.05;;;10.60;99.90;;;;;;4992691;28;20076;-87
2021/11/18 11:58:36;;;;;;;16.50;3.63;;;10.60;99.90;;;;;;4993593;28;20029;-86
2021/11/18 12:01:51;;;;;;;11.48;3.58;;;10.60;99.90;;;;;;4993359;28;20044;-88
2021/11/18 12:04:45;;;;;;;23.13;4.28;;;10.60;99.90;;;;;;4950809;29;20046;-88
2021/11/18 12:07:13;;;;;;;19.02;3.35;;;10.60;99.90;;;;;;4915319;29;20040;-87
2021/11/18 12:09:47;;;;;;;17.88;4.68;;;10.60;99.90;;;;;;4933514;29;20039;-87
2021/11/18 12:12:34;;;;;;;19.27;4.32;;;10.70;99.90;;;;;;4947112;29;20051;-87
2021/11/18 12:15:02;;;;;;;18.02;3.83;;;10.80;99.90;;;;;;4946241;29;20072;-88
2021/11/18 12:17:35;;;;;;;15.23;2.78;;;10.90;99.90;;;;;;4931299;29;20032;-88
2021/11/18 12:20:12;;;;;;;11.50;2.60;;;10.90;99.90;;;;;;4948643;29;20040;-88
2021/11/18 12:22:38;;;;;;;11.18;2.53;;;10.90;99.90;;;;;;4946967;29;20052;-87
2021/11/18 12:25:41;;;;;;;20.70;4.15;;;10.90;99.90;;;;;;4933420;29;20047;-87
2021/11/18 12:28:12;;;;;;;19.20;3.95;;;10.90;99.90;;;;;;4946994;29;20114;-87
2021/11/18 12:30:47;;;;;;;14.60;2.85;;;10.80;99.90;;;;;;4946526;29;20051;-87
2021/11/18 12:33:18;;;;;;;14.80;3.47;;;10.90;99.90;;;;;;4946816;29;20046;-87
2021/11/18 12:35:47;;;;;;;18.08;3.75;;;10.80;99.90;;;;;;4915768;29;20075;-87
2021/11/18 12:38:38;;;;;;;22.88;3.95;;;10.80;99.90;;;;;;4969591;28;20034;-87
2021/11/18 12:41:25;;;;;;;20.98;3.78;;;10.90;99.90;;;;;;5008811;28;20061;-87
2021/11/18 12:44:31;;;;;;;20.45;4.30;;;11.00;99.90;;;;;;4993032;28;20030;-88
2021/11/18 12:47:08;;;;;;;20.30;3.95;;;11.00;99.90;;;;;;5005783;28;20100;-89
2021/11/18 12:49:55;;;;;;;18.98;3.70;;;11.00;99.90;;;;;;5011698;28;20417;-87
2021/11/18 12:53:01;;;;;;;15.20;3.33;;;11.10;99.90;;;;;;5012484;28;20037;-89
2021/11/18 12:55:45;;;;;;;14.82;2.13;;;11.10;99.90;;;;;;5012793;28;20056;-88
2021/11/18 12:58:23;;;;;;;18.48;3.28;;;11.10;99.90;;;;;;5012943;28;20029;-89
2021/11/18 13:00:59;;;;;;;27.50;4.70;;;11.20;99.90;;;;;;5012858;28;20068;-88
2021/11/18 13:03:43;;;;;;;13.82;3.08;;;11.00;99.90;;;;;;5012886;28;20429;-88
2021/11/18 13:06:09;;;;;;;15.95;2.50;;;11.00;99.90;;;;;;5012849;28;20029;-88
2021/11/18 13:08:41;;;;;;;15.98;2.70;;;11.10;99.90;;;;;;5012756;28;20037;-89
2021/11/18 13:11:25;;;;;;;15.68;3.72;;;11.20;99.90;;;;;;5012670;28;20053;-87
2021/11/18 13:14:28;;;;;;;15.10;2.58;;;11.10;99.90;;;;;;5012951;28;20060;-88
2021/11/18 13:17:06;;;;;;;13.60;2.70;;;11.10;99.90;;;;;;4995918;28;20521;-89
2021/11/18 13:19:38;;;;;;;19.60;3.58;;;11.10;99.90;;;;;;5028679;28;20037;-87